Adams, Oklahoma
Current Conditions -  °F | °C
As of 7:35 PM on Friday 21 Nov 2014 (Local Time) from KLBL Reporting Station
Clear Clear  
Wind Chill: 40°   Ceiling: Unl
Heat Index: 45°   Visibility: 10mi
Dew Point: 32°   Wind: 9mph
Humidity: 61%   Direction: 110°ESE
Pressure: 29.99"   Gusts: NA
Location:  36.76°N, 101.08°W
Report Text: KLBL 220135Z AUTO 11008KT 10SM CLR 07/00 A2999 RMK AO1
Loading
Personal Weather Stations






























Interactive Weather Map New forecast layout! Learn more

10-Day Weather Forecast

Advertisements
Track Severe Weather on mobile